| time (UTC) | temp F | wind direction | speed MPH | gust MPH | rain 1hr in | rain 24hr in | rain mn in | humidity % | barometer mb |
| 20260905052006 | 78 | 182 | 0.0 | 1.0 | 0.00 | 0.00 | 0.00 | 78 | 1013.1 |
| 20260905051005 | 78 | 182 | 1.0 | 2.0 | 0.00 | 0.00 | 0.00 | 77 | 1013.3 |
| 20260905050005 | 78 | 199 | 0.0 | 1.0 | 0.00 | 0.00 | 0.00 | 80 | 1013.4 |
| 20260905045006 | 78 | 199 | 0.0 | 0.0 | 0.00 | 0.00 | 0.00 | 79 | 1013.4 |
| 20260905043005 | 78 | 199 | 0.0 | 1.0 | 0.00 | 0.00 | 0.00 | 80 | 1013.7 |
| 20260905042006 | 79 | 199 | 0.0 | 1.0 | 0.00 | 0.00 | 0.00 | 79 | 1013.7 |
| 20260905041007 | 79 | 199 | 1.0 | 2.0 | 0.00 | 0.00 | 0.00 | 80 | 1013.8 |
| 20260905040006 | 79 | 112 | 0.0 | 1.0 | 0.00 | 0.00 | 0.00 | 80 | 1013.7 |
| 20260905035005 | 79 | 112 | 1.0 | 1.0 | 0.00 | 0.00 | 0.00 | 80 | 1013.7 |
| 20260905033007 | 78 | 112 | 0.0 | 0.0 | 0.00 | 0.00 | 0.00 | 82 | 1013.8 |
| 20260905032007 | 78 | 112 | 0.0 | 0.0 | 0.00 | 0.00 | 0.00 | 82 | 1013.8 |
| 20260905031007 | 79 | 112 | 0.0 | 0.0 | 0.00 | 0.00 | 0.00 | 82 | 1013.9 |
| 20260905030005 | 79 | 112 | 0.0 | 0.0 | 0.00 | 0.00 | 0.00 | 82 | 1013.8 |
| 20260905025007 | 79 | 112 | 0.0 | 1.0 | 0.00 | 0.00 | 0.00 | 83 | 1013.8 |
| 20260905024005 | 79 | 112 | 0.0 | 0.0 | 0.00 | 0.00 | 0.00 | 83 | 1013.6 |
| 20260905023005 | 79 | 112 | 0.0 | 1.0 | 0.00 | 0.00 | 0.00 | 83 | 1013.7 |
| 20260905022006 | 79 | 112 | 0.0 | 1.0 | 0.00 | 0.00 | 0.00 | 83 | 1013.7 |
| 20260905021005 | 79 | 112 | 0.0 | 0.0 | 0.00 | 0.00 | 0.00 | 84 | 1013.6 |
| 20260905020004 | 80 | 112 | 0.0 | 1.0 | 0.00 | 0.00 | 0.00 | 84 | 1013.5 |
| 20260905015005 | 80 | 112 | 0.0 | 2.0 | 0.00 | 0.00 | 0.00 | 84 | 1013.5 |
| 20260905014006 | 80 | 112 | 1.0 | 2.0 | 0.00 | 0.00 | 0.00 | 84 | 1013.5 |
| 20260905013006 | 80 | 232 | 1.0 | 1.0 | 0.00 | 0.00 | 0.00 | 84 | 1013.4 |
| 20260905010005 | 81 | 198 | 0.0 | 1.0 | 0.00 | 0.00 | 0.00 | 82 | 1013.4 |
| 20260905005005 | 81 | 198 | 0.0 | 1.0 | 0.00 | 0.00 | 0.00 | 81 | 1013.2 |
| 20260905004005 | 82 | 213 | 0.0 | 2.0 | 0.00 | 0.00 | 0.00 | 81 | 1013.1 |
| 20260905003006 | 82 | 175 | 1.0 | 3.0 | 0.00 | 0.00 | 0.00 | 80 | 1013.2 |
| 20260905002007 | 83 | 111 | 0.0 | 7.0 | 0.00 | 0.00 | 0.00 | 80 | 1013.0 |
| 20260905001005 | 83 | 154 | 1.0 | 2.0 | 0.00 | 0.00 | 0.00 | 83 | 1012.9 |
| 20260905000006 | 83 | 129 | 0.0 | 1.0 | 0.00 | 0.00 | 0.00 | 83 | 1013.0 |
| 20260904235007 | 84 | 129 | 0.0 | 2.0 | 0.00 | 0.00 | 0.00 | 83 | 1013.0 |
| 20260904234005 | 84 | 105 | 0.0 | 2.0 | 0.00 | 0.00 | 0.00 | 82 | 1012.8 |
| 20260904233006 | 84 | 105 | 1.0 | 2.0 | 0.00 | 0.00 | 0.00 | 82 | 1012.8 |
| 20260904232005 | 85 | 105 | 0.0 | 2.0 | 0.00 | 0.00 | 0.00 | 81 | 1012.7 |
| 20260904231006 | 85 | 105 | 0.0 | 1.0 | 0.00 | 0.00 | 0.00 | 81 | 1012.3 |
| 20260904230005 | 85 | 105 | 1.0 | 2.0 | 0.00 | 0.00 | 0.00 | 80 | 1012.4 |
| 20260904225007 | 86 | 136 | 0.0 | 1.0 | 0.00 | 0.00 | 0.00 | 78 | 1012.5 |
| 20260904224007 | 86 | 136 | 0.0 | 3.0 | 0.00 | 0.00 | 0.00 | 78 | 1012.4 |
| 20260904222006 | 87 | 191 | 3.0 | 6.0 | 0.00 | 0.00 | 0.00 | 77 | 1012.1 |
| 20260904221006 | 87 | 163 | 2.0 | 12.0 | 0.00 | 0.00 | 0.00 | 76 | 1011.9 |
| 20260904220005 | 87 | 105 | 2.0 | 6.0 | 0.00 | 0.00 | 0.00 | 76 | 1011.6 |
| 20260904215005 | 87 | 100 | 3.0 | 7.0 | 0.00 | 0.00 | 0.00 | 76 | 1011.6 |
| 20260904214007 | 88 | 108 | 2.0 | 10.0 | 0.00 | 0.00 | 0.00 | 75 | 1011.7 |
| 20260904213006 | 88 | 106 | 3.0 | 12.0 | 0.00 | 0.00 | 0.00 | 74 | 1011.8 |
| 20260904205007 | 91 | 96 | 5.0 | 12.0 | 0.00 | 0.00 | 0.00 | 68 | 1012.1 |
| 20260904204005 | 92 | 107 | 3.0 | 7.0 | 0.00 | 0.00 | 0.00 | 64 | 1012.0 |
| 20260904203005 | 92 | 98 | 4.0 | 14.0 | 0.00 | 0.00 | 0.00 | 66 | 1012.0 |
| 20260904202007 | 92 | 101 | 3.0 | 12.0 | 0.00 | 0.00 | 0.00 | 66 | 1012.0 |
| 20260904201006 | 92 | 97 | 5.0 | 12.0 | 0.00 | 0.00 | 0.00 | 65 | 1011.9 |
| 20260904200006 | 91 | 117 | 2.0 | 10.0 | 0.00 | 0.00 | 0.00 | 68 | 1012.1 |
| 20260904195006 | 91 | 87 | 5.0 | 12.0 | 0.00 | 0.00 | 0.00 | 66 | 1012.3 |
| 20260904194005 | 91 | 81 | 4.0 | 10.0 | 0.00 | 0.00 | 0.00 | 74 | 1012.5 |
| 20260904193007 | 90 | 106 | 3.0 | 10.0 | 0.00 | 0.00 | 0.00 | 75 | 1012.5 |
| 20260904192006 | 90 | 100 | 5.0 | 13.0 | 0.00 | 0.00 | 0.00 | 72 | 1012.7 |
| 20260904191006 | 91 | 89 | 7.0 | 14.0 | 0.00 | 0.00 | 0.00 | 71 | 1012.7 |
| 20260904190005 | 94 | 119 | 5.0 | 8.0 | 0.00 | 0.00 | 0.00 | 66 | 1012.9 |
| 20260904185006 | 96 | 328 | 1.0 | 6.0 | 0.00 | 0.01 | 0.00 | 54 | 1012.7 |
| 20260904184006 | 95 | 80 | 1.0 | 6.0 | 0.00 | 0.01 | 0.00 | 57 | 1013.0 |
| 20260904183007 | 94 | 238 | 3.0 | 10.0 | 0.00 | 0.01 | 0.00 | 56 | 1013.1 |
| 20260904182008 | 94 | 214 | 4.0 | 10.0 | 0.00 | 0.02 | 0.00 | 56 | 1013.3 |
| 20260904181005 | 93 | 212 | 2.0 | 7.0 | 0.00 | 0.06 | 0.00 | 62 | 1013.3 |
| 20260904180006 | 94 | 178 | 3.0 | 7.0 | 0.00 | 0.13 | 0.00 | 60 | 1013.6 |
| 20260904175005 | 94 | 200 | 3.0 | 7.0 | 0.00 | 0.20 | 0.00 | 61 | 1013.7 |
| 20260904174005 | 93 | 228 | 3.0 | 7.0 | 0.00 | 0.20 | 0.00 | 63 | 1013.8 |
| 20260904173006 | 92 | 224 | 5.0 | 7.0 | 0.00 | 0.20 | 0.00 | 62 | 1014.0 |
| 20260904172006 | 92 | 155 | 3.0 | 7.0 | 0.00 | 0.20 | 0.00 | 62 | 1014.0 |
| 20260904171006 | 92 | 156 | 1.0 | 8.0 | 0.00 | 0.20 | 0.00 | 66 | 1014.3 |
| 20260904165007 | 92 | 166 | 3.0 | 7.0 | 0.00 | 0.20 | 0.00 | 66 | 1014.3 |
| 20260904163005 | 91 | 221 | 3.0 | 12.0 | 0.00 | 0.20 | 0.00 | 65 | 1014.4 |
| 20260904162007 | 91 | 220 | 3.0 | 10.0 | 0.00 | 0.20 | 0.00 | 64 | 1014.5 |
| 20260904161005 | 91 | 248 | 2.0 | 6.0 | 0.00 | 0.20 | 0.00 | 67 | 1014.7 |
| 20260904160006 | 91 | 198 | 3.0 | 7.0 | 0.00 | 0.20 | 0.00 | 68 | 1014.8 |
| 20260904155005 | 90 | 206 | 4.0 | 7.0 | 0.00 | 0.20 | 0.00 | 68 | 1015.0 |
| 20260904154006 | 90 | 184 | 3.0 | 12.0 | 0.00 | 0.20 | 0.00 | 69 | 1014.8 |
| 20260904153005 | 90 | 223 | 3.0 | 7.0 | 0.00 | 0.20 | 0.00 | 72 | 1014.8 |
| 20260904150006 | 88 | 198 | 3.0 | 12.0 | 0.00 | 0.20 | 0.00 | 75 | 1014.7 |
| 20260904145006 | 88 | 203 | 5.0 | 8.0 | 0.00 | 0.20 | 0.00 | 76 | 1014.8 |
| 20260904144007 | 88 | 221 | 2.0 | 6.0 | 0.00 | 0.20 | 0.00 | 76 | 1014.8 |
| 20260904142006 | 86 | 191 | 2.0 | 7.0 | 0.00 | 0.20 | 0.00 | 79 | 1014.5 |
| 20260904140005 | 85 | 231 | 4.0 | 7.0 | 0.00 | 0.20 | 0.00 | 79 | 1014.1 |
| 20260904134005 | 85 | 214 | 3.0 | 8.0 | 0.00 | 0.20 | 0.00 | 80 | 1014.2 |
| 20260904133005 | 85 | 238 | 2.0 | 5.0 | 0.00 | 0.20 | 0.00 | 81 | 1014.3 |
| 20260904132006 | 85 | 225 | 2.0 | 6.0 | 0.00 | 0.20 | 0.00 | 80 | 1014.2 |
| 20260904131005 | 85 | 183 | 1.0 | 3.0 | 0.00 | 0.20 | 0.00 | 81 | 1014.1 |
| 20260904130004 | 83 | 76 | 1.0 | 3.0 | 0.00 | 0.20 | 0.00 | 82 | 1014.1 |
| 20260904125005 | 83 | 144 | 2.0 | 3.0 | 0.00 | 0.20 | 0.00 | 82 | 1014.0 |
| 20260904124005 | 82 | 217 | 2.0 | 3.0 | 0.00 | 0.20 | 0.00 | 82 | 1013.8 |
| 20260904123005 | 80 | 196 | 1.0 | 3.0 | 0.00 | 0.20 | 0.00 | 78 | 1013.7 |
| 20260904122005 | 80 | 192 | 1.0 | 2.0 | 0.00 | 0.20 | 0.00 | 78 | 1013.8 |
| 20260904121005 | 80 | 94 | 0.0 | 2.0 | 0.00 | 0.20 | 0.00 | 66 | 1013.7 |
| 20260904120005 | 78 | 138 | 0.0 | 2.0 | 0.00 | 0.20 | 0.00 | 64 | 1013.6 |
| 20260904115005 | 77 | 95 | 0.0 | 0.0 | 0.00 | 0.20 | 0.00 | 65 | 1013.5 |
| 20260904114006 | 77 | 95 | 0.0 | 0.0 | 0.00 | 0.20 | 0.00 | 65 | 1013.4 |
| 20260904113007 | 75 | 95 | 0.0 | 0.0 | 0.00 | 0.20 | 0.00 | 67 | 1013.3 |
| 20260904112006 | 75 | 95 | 0.0 | 0.0 | 0.00 | 0.20 | 0.00 | 67 | 1013.2 |
| 20260904111005 | 75 | 95 | 0.0 | 0.0 | 0.00 | 0.20 | 0.00 | 67 | 1013.1 |
| 20260904105006 | 75 | 95 | 0.0 | 0.0 | 0.00 | 0.20 | 0.00 | 67 | 1013.0 |
| 20260904104006 | 75 | 95 | 0.0 | 0.0 | 0.00 | 0.20 | 0.00 | 67 | 1013.0 |
| 20260904103006 | 75 | 95 | 0.0 | 0.0 | 0.00 | 0.20 | 0.00 | 67 | 1013.0 |
| 20260904102006 | 75 | 95 | 0.0 | 1.0 | 0.00 | 0.20 | 0.00 | 67 | 1012.8 |
| 20260904101006 | 76 | 95 | 0.0 | 0.0 | 0.00 | 0.20 | 0.00 | 67 | 1012.7 |
| 20260904100005 | 76 | 95 | 0.0 | 1.0 | 0.00 | 0.20 | 0.00 | 67 | 1012.5 |
| 20260904095006 | 75 | 95 | 0.0 | 0.0 | 0.00 | 0.20 | 0.00 | 68 | 1012.4 |
| 20260904094006 | 76 | 95 | 0.0 | 1.0 | 0.00 | 0.20 | 0.00 | 67 | 1012.5 |
| 20260904093005 | 76 | 95 | 0.0 | 1.0 | 0.00 | 0.20 | 0.00 | 67 | 1012.4 |
| 20260904092005 | 76 | 95 | 0.0 | 0.0 | 0.00 | 0.20 | 0.00 | 67 | 1012.2 |
| 20260904085005 | 76 | 95 | 0.0 | 0.0 | 0.00 | 0.20 | 0.00 | 68 | 1012.3 |
| 20260904084005 | 76 | 95 | 0.0 | 1.0 | 0.00 | 0.20 | 0.00 | 68 | 1012.2 |
| 20260904083006 | 76 | 95 | 0.0 | 1.0 | 0.00 | 0.20 | 0.00 | 68 | 1012.0 |
| 20260904082006 | 76 | 95 | 0.0 | 0.0 | 0.00 | 0.20 | 0.00 | 68 | 1012.0 |
| 20260904081005 | 76 | 95 | 0.0 | 0.0 | 0.00 | 0.20 | 0.00 | 68 | 1012.0 |
| 20260904080005 | 76 | 95 | 0.0 | 0.0 | 0.00 | 0.20 | 0.00 | 68 | 1012.0 |
| 20260904075006 | 76 | 95 | 0.0 | 0.0 | 0.00 | 0.20 | 0.00 | 68 | 1012.0 |
| 20260904074005 | 76 | 95 | 1.0 | 1.0 | 0.00 | 0.20 | 0.00 | 68 | 1012.0 |
| 20260904073006 | 76 | 95 | 1.0 | 2.0 | 0.00 | 0.20 | 0.00 | 68 | 1011.9 |
| 20260904072006 | 76 | 95 | 0.0 | 0.0 | 0.00 | 0.20 | 0.00 | 68 | 1011.8 |
| 20260904071006 | 76 | 95 | 0.0 | 0.0 | 0.00 | 0.20 | 0.00 | 69 | 1012.0 |
| 20260904070005 | 75 | 95 | 0.0 | 0.0 | 0.00 | 0.20 | 0.00 | 70 | 1012.2 |
| 20260904065005 | 76 | 95 | 0.0 | 0.0 | 0.00 | 0.20 | 0.00 | 69 | 1012.2 |
| 20260904064006 | 75 | 95 | 0.0 | 0.0 | 0.00 | 0.20 | 0.00 | 70 | 1012.3 |
| 20260904063005 | 75 | 95 | 0.0 | 0.0 | 0.00 | 0.20 | 0.00 | 70 | 1012.4 |
| 20260904061005 | 75 | 95 | 0.0 | 0.0 | 0.00 | 0.20 | 0.00 | 71 | 1012.5 |
| 20260904055006 | 76 | 95 | 0.0 | 0.0 | 0.00 | 0.20 | 0.00 | 71 | 1012.7 |
| 20260904054007 | 76 | 95 | 0.0 | 0.0 | 0.00 | 0.20 | 0.00 | 72 | 1012.7 |
| 20260904053006 | 76 | 95 | 0.0 | 0.0 | 0.00 | 0.20 | 0.00 | 72 | 1012.8 |